sensor_id;sensor_type;location;lat;lon;timestamp;pressure;altitude;pressure_sealevel;temperature;humidity
21828;BME280;11076;47.942;11.804;2022-11-23T00:04:27;93101.78;;;3.59;100.00
21828;BME280;11076;47.942;11.804;2022-11-23T00:09:38;93101.00;;;3.58;100.00
21828;BME280;11076;47.942;11.804;2022-11-23T00:15:33;93094.47;;;3.61;100.00
21828;BME280;11076;47.942;11.804;2022-11-23T00:27:38;93095.91;;;3.57;100.00
21828;BME280;11076;47.942;11.804;2022-11-23T00:32:40;93108.69;;;3.60;100.00
21828;BME280;11076;47.942;11.804;2022-11-23T00:37:42;93111.97;;;3.62;100.00
21828;BME280;11076;47.942;11.804;2022-11-23T00:42:45;93104.25;;;3.54;100.00
21828;BME280;11076;47.942;11.804;2022-11-23T00:47:47;93109.94;;;3.57;100.00
21828;BME280;11076;47.942;11.804;2022-11-23T00:52:50;93113.97;;;3.60;100.00
21828;BME280;11076;47.942;11.804;2022-11-23T00:57:52;93110.13;;;3.63;100.00
21828;BME280;11076;47.942;11.804;2022-11-23T01:02:54;93108.50;;;3.68;100.00
21828;BME280;11076;47.942;11.804;2022-11-23T01:07:57;93100.56;;;3.68;100.00
21828;BME280;11076;47.942;11.804;2022-11-23T01:12:59;93122.09;;;3.78;100.00
21828;BME280;11076;47.942;11.804;2022-11-23T01:18:02;93116.00;;;3.78;100.00
21828;BME280;11076;47.942;11.804;2022-11-23T01:23:05;93115.56;;;3.81;100.00
21828;BME280;11076;47.942;11.804;2022-11-23T01:28:08;93113.72;;;3.88;100.00
21828;BME280;11076;47.942;11.804;2022-11-23T01:33:10;93110.25;;;3.88;100.00
21828;BME280;11076;47.942;11.804;2022-11-23T01:38:12;93109.88;;;3.84;100.00
21828;BME280;11076;47.942;11.804;2022-11-23T01:43:19;93116.78;;;3.72;100.00
21828;BME280;11076;47.942;11.804;2022-11-23T01:48:26;93109.53;;;3.54;100.00
21828;BME280;11076;47.942;11.804;2022-11-23T01:53:30;93114.81;;;3.54;100.00
21828;BME280;11076;47.942;11.804;2022-11-23T01:58:38;93115.63;;;3.61;100.00
21828;BME280;11076;47.942;11.804;2022-11-23T02:03:45;93117.25;;;3.62;100.00
21828;BME280;11076;47.942;11.804;2022-11-23T02:08:49;93127.44;;;3.45;100.00
21828;BME280;11076;47.942;11.804;2022-11-23T02:13:53;93127.63;;;3.44;100.00
21828;BME280;11076;47.942;11.804;2022-11-23T02:18:58;93126.63;;;3.45;100.00
21828;BME280;11076;47.942;11.804;2022-11-23T02:24:07;93119.72;;;3.37;100.00
21828;BME280;11076;47.942;11.804;2022-11-23T02:29:19;93127.06;;;3.28;100.00
21828;BME280;11076;47.942;11.804;2022-11-23T02:34:25;93129.06;;;3.26;100.00
21828;BME280;11076;47.942;11.804;2022-11-23T02:39:38;93130.50;;;3.29;100.00
21828;BME280;11076;47.942;11.804;2022-11-23T02:50:24;93122.16;;;3.32;100.00
21828;BME280;11076;47.942;11.804;2022-11-23T02:55:27;93121.75;;;3.42;100.00
21828;BME280;11076;47.942;11.804;2022-11-23T03:00:30;93119.31;;;3.40;100.00
21828;BME280;11076;47.942;11.804;2022-11-23T03:05:34;93127.41;;;3.58;100.00
21828;BME280;11076;47.942;11.804;2022-11-23T03:10:39;93131.50;;;3.48;100.00
21828;BME280;11076;47.942;11.804;2022-11-23T03:15:42;93134.13;;;3.54;100.00
21828;BME280;11076;47.942;11.804;2022-11-23T03:20:44;93136.34;;;3.57;100.00
21828;BME280;11076;47.942;11.804;2022-11-23T03:25:54;93143.06;;;3.53;100.00
21828;BME280;11076;47.942;11.804;2022-11-23T03:30:58;93135.97;;;3.47;100.00
21828;BME280;11076;47.942;11.804;2022-11-23T03:36:00;93142.47;;;3.45;100.00
21828;BME280;11076;47.942;11.804;2022-11-23T03:41:06;93140.44;;;3.47;100.00
21828;BME280;11076;47.942;11.804;2022-11-23T03:46:19;93151.41;;;3.44;100.00
21828;BME280;11076;47.942;11.804;2022-11-23T03:51:21;93145.72;;;3.40;100.00
21828;BME280;11076;47.942;11.804;2022-11-23T03:56:24;93125.41;;;3.34;100.00
21828;BME280;11076;47.942;11.804;2022-11-23T04:01:27;93127.47;;;3.38;100.00
21828;BME280;11076;47.942;11.804;2022-11-23T04:06:35;93130.28;;;3.37;100.00
21828;BME280;11076;47.942;11.804;2022-11-23T04:11:57;93137.84;;;3.27;100.00
21828;BME280;11076;47.942;11.804;2022-11-23T04:17:00;93123.00;;;3.26;100.00
21828;BME280;11076;47.942;11.804;2022-11-23T04:22:04;93112.44;;;3.32;100.00
21828;BME280;11076;47.942;11.804;2022-11-23T04:27:12;93121.16;;;3.26;100.00
21828;BME280;11076;47.942;11.804;2022-11-23T04:32:16;93120.34;;;3.32;100.00
21828;BME280;11076;47.942;11.804;2022-11-23T04:37:19;93114.88;;;3.27;100.00
21828;BME280;11076;47.942;11.804;2022-11-23T04:42:22;93108.97;;;3.25;100.00
21828;BME280;11076;47.942;11.804;2022-11-23T04:47:31;93121.59;;;3.16;100.00
21828;BME280;11076;47.942;11.804;2022-11-23T04:52:38;93115.91;;;3.13;100.00
21828;BME280;11076;47.942;11.804;2022-11-23T04:57:47;93113.22;;;3.33;100.00
21828;BME280;11076;47.942;11.804;2022-11-23T05:02:50;93122.16;;;3.32;100.00
21828;BME280;11076;47.942;11.804;2022-11-23T05:07:59;93120.97;;;3.21;100.00
21828;BME280;11076;47.942;11.804;2022-11-23T05:13:14;93119.75;;;3.17;100.00
21828;BME280;11076;47.942;11.804;2022-11-23T05:18:18;93111.22;;;3.15;100.00
21828;BME280;11076;47.942;11.804;2022-11-23T05:23:20;93115.47;;;3.16;100.00
21828;BME280;11076;47.942;11.804;2022-11-23T05:28:24;93113.47;;;3.11;100.00
21828;BME280;11076;47.942;11.804;2022-11-23T05:33:46;93109.19;;;3.10;100.00
21828;BME280;11076;47.942;11.804;2022-11-23T05:38:52;93102.91;;;3.05;100.00
21828;BME280;11076;47.942;11.804;2022-11-23T05:44:01;93105.94;;;3.02;100.00
21828;BME280;11076;47.942;11.804;2022-11-23T05:49:04;93108.38;;;3.03;100.00
21828;BME280;11076;47.942;11.804;2022-11-23T05:54:11;93106.38;;;2.98;100.00
21828;BME280;11076;47.942;11.804;2022-11-23T05:59:19;93110.41;;;3.01;100.00
21828;BME280;11076;47.942;11.804;2022-11-23T06:04:26;93106.56;;;3.04;100.00
21828;BME280;11076;47.942;11.804;2022-11-23T06:09:30;93111.22;;;3.08;100.00
21828;BME280;11076;47.942;11.804;2022-11-23T06:14:39;93106.75;;;3.02;100.00
21828;BME280;11076;47.942;11.804;2022-11-23T06:19:42;93111.66;;;2.98;100.00
21828;BME280;11076;47.942;11.804;2022-11-23T06:24:45;93109.38;;;2.82;100.00
21828;BME280;11076;47.942;11.804;2022-11-23T06:30:17;93108.19;;;2.71;100.00
21828;BME280;11076;47.942;11.804;2022-11-23T06:35:21;93106.53;;;2.70;100.00
21828;BME280;11076;47.942;11.804;2022-11-23T06:40:24;93112.03;;;2.69;100.00
21828;BME280;11076;47.942;11.804;2022-11-23T06:45:27;93113.25;;;2.79;100.00
21828;BME280;11076;47.942;11.804;2022-11-23T06:50:33;93120.97;;;2.81;100.00
21828;BME280;11076;47.942;11.804;2022-11-23T06:55:36;93127.47;;;2.85;100.00
21828;BME280;11076;47.942;11.804;2022-11-23T07:00:39;93129.91;;;2.93;100.00
21828;BME280;11076;47.942;11.804;2022-11-23T07:05:43;93132.16;;;2.96;100.00
21828;BME280;11076;47.942;11.804;2022-11-23T07:10:46;93138.44;;;2.95;100.00
21828;BME280;11076;47.942;11.804;2022-11-23T07:15:51;93142.72;;;2.96;100.00
21828;BME280;11076;47.942;11.804;2022-11-23T07:20:56;93147.81;;;3.05;100.00
21828;BME280;11076;47.942;11.804;2022-11-23T07:26:01;93145.78;;;3.07;100.00
21828;BME280;11076;47.942;11.804;2022-11-23T07:31:04;93153.25;;;3.10;100.00
21828;BME280;11076;47.942;11.804;2022-11-23T07:36:07;93166.06;;;3.19;100.00
21828;BME280;11076;47.942;11.804;2022-11-23T07:41:11;93165.06;;;3.27;100.00
21828;BME280;11076;47.942;11.804;2022-11-23T07:46:40;93163.63;;;3.31;100.00
21828;BME280;11076;47.942;11.804;2022-11-23T07:51:42;93160.16;;;3.37;100.00
21828;BME280;11076;47.942;11.804;2022-11-23T07:56:44;93178.22;;;3.54;100.00
21828;BME280;11076;47.942;11.804;2022-11-23T08:01:47;93174.97;;;3.65;100.00
21828;BME280;11076;47.942;11.804;2022-11-23T08:06:52;93174.16;;;3.78;100.00
21828;BME280;11076;47.942;11.804;2022-11-23T08:11:55;93168.56;;;4.06;100.00
21828;BME280;11076;47.942;11.804;2022-11-23T08:16:57;93174.34;;;4.35;100.00
21828;BME280;11076;47.942;11.804;2022-11-23T08:22:00;93183.53;;;4.71;100.00
21828;BME280;11076;47.942;11.804;2022-11-23T08:27:02;93173.75;;;5.10;100.00
21828;BME280;11076;47.942;11.804;2022-11-23T08:32:05;93174.44;;;5.49;100.00
21828;BME280;11076;47.942;11.804;2022-11-23T08:37:07;93179.53;;;5.75;100.00
21828;BME280;11076;47.942;11.804;2022-11-23T08:42:09;93170.44;;;6.08;100.00
21828;BME280;11076;47.942;11.804;2022-11-23T08:47:12;93163.44;;;6.51;100.00
21828;BME280;11076;47.942;11.804;2022-11-23T08:52:14;93168.78;;;6.93;100.00
21828;BME280;11076;47.942;11.804;2022-11-23T08:57:17;93164.97;;;7.31;100.00
21828;BME280;11076;47.942;11.804;2022-11-23T09:02:19;93163.00;;;7.50;100.00
21828;BME280;11076;47.942;11.804;2022-11-23T09:07:21;93170.56;;;7.65;100.00
21828;BME280;11076;47.942;11.804;2022-11-23T09:12:24;93160.28;;;7.68;100.00
21828;BME280;11076;47.942;11.804;2022-11-23T09:17:26;93167.91;;;7.65;98.33
21828;BME280;11076;47.942;11.804;2022-11-23T09:22:29;93165.59;;;7.68;97.98
21828;BME280;11076;47.942;11.804;2022-11-23T09:27:31;93171.03;;;7.85;98.24
21828;BME280;11076;47.942;11.804;2022-11-23T09:32:34;93157.84;;;7.90;96.59
21828;BME280;11076;47.942;11.804;2022-11-23T09:37:36;93161.06;;;7.81;96.44
21828;BME280;11076;47.942;11.804;2022-11-23T09:42:54;93153.66;;;7.94;95.18
21828;BME280;11076;47.942;11.804;2022-11-23T09:48:13;93152.75;;;7.89;94.78
21828;BME280;11076;47.942;11.804;2022-11-23T09:53:32;93160.84;;;7.94;94.14
21828;BME280;11076;47.942;11.804;2022-11-23T09:58:39;93152.75;;;7.89;93.76
21828;BME280;11076;47.942;11.804;2022-11-23T10:03:43;93154.25;;;7.85;92.90
21828;BME280;11076;47.942;11.804;2022-11-23T10:14:17;93148.47;;;7.88;90.26
21828;BME280;11076;47.942;11.804;2022-11-23T10:19:46;93142.56;;;7.62;89.21
21828;BME280;11076;47.942;11.804;2022-11-23T10:24:53;93132.03;;;7.55;87.62
21828;BME280;11076;47.942;11.804;2022-11-23T10:29:57;93138.84;;;7.40;87.70
21828;BME280;11076;47.942;11.804;2022-11-23T10:35:15;93132.59;;;7.93;84.54
21828;BME280;11076;47.942;11.804;2022-11-23T10:40:25;93127.06;;;7.94;83.30
21828;BME280;11076;47.942;11.804;2022-11-23T10:45:28;93120.25;;;7.63;83.47
21828;BME280;11076;47.942;11.804;2022-11-23T10:50:36;93113.38;;;7.08;84.48
21828;BME280;11076;47.942;11.804;2022-11-23T10:55:50;93116.66;;;6.80;85.76
21828;BME280;11076;47.942;11.804;2022-11-23T11:00:59;93113.28;;;6.73;87.16
21828;BME280;11076;47.942;11.804;2022-11-23T11:06:02;93118.34;;;6.63;87.65
21828;BME280;11076;47.942;11.804;2022-11-23T11:11:30;93118.47;;;6.68;88.16
21828;BME280;11076;47.942;11.804;2022-11-23T11:16:35;93108.41;;;6.70;88.23
21828;BME280;11076;47.942;11.804;2022-11-23T11:21:40;93105.25;;;6.91;88.08
21828;BME280;11076;47.942;11.804;2022-11-23T11:26:48;93111.16;;;7.05;88.00
21828;BME280;11076;47.942;11.804;2022-11-23T11:37:13;93107.00;;;6.97;89.64
21828;BME280;11076;47.942;11.804;2022-11-23T11:42:26;93108.66;;;7.10;87.58
21828;BME280;11076;47.942;11.804;2022-11-23T11:47:36;93103.00;;;7.89;85.81
21828;BME280;11076;47.942;11.804;2022-11-23T11:52:42;93097.22;;;7.33;85.69
21828;BME280;11076;47.942;11.804;2022-11-23T11:57:51;93091.78;;;7.52;84.62
21828;BME280;11076;47.942;11.804;2022-11-23T12:08:42;93084.50;;;7.83;83.87
21828;BME280;11076;47.942;11.804;2022-11-23T12:13:47;93069.00;;;8.32;82.97
21828;BME280;11076;47.942;11.804;2022-11-23T12:19:08;93066.09;;;7.93;83.12
21828;BME280;11076;47.942;11.804;2022-11-23T12:24:27;93063.81;;;8.13;79.60
21828;BME280;11076;47.942;11.804;2022-11-23T12:29:40;93065.31;;;8.21;80.40
21828;BME280;11076;47.942;11.804;2022-11-23T12:40:25;93061.16;;;8.13;81.70
21828;BME280;11076;47.942;11.804;2022-11-23T12:45:44;93056.13;;;8.00;81.68
21828;BME280;11076;47.942;11.804;2022-11-23T12:51:03;93055.63;;;8.03;81.58
21828;BME280;11076;47.942;11.804;2022-11-23T12:56:59;93061.28;;;7.66;82.27
21828;BME280;11076;47.942;11.804;2022-11-23T13:01:58;93056.28;;;7.70;81.94
21828;BME280;11076;47.942;11.804;2022-11-23T13:12:42;93051.78;;;7.70;82.72
21828;BME280;11076;47.942;11.804;2022-11-23T13:19:01;93059.19;;;7.68;83.02
21828;BME280;11076;47.942;11.804;2022-11-23T13:23:36;93064.28;;;7.58;83.16
21828;BME280;11076;47.942;11.804;2022-11-23T13:28:39;93061.63;;;7.46;82.80
21828;BME280;11076;47.942;11.804;2022-11-23T13:33:50;93060.34;;;7.37;82.97
21828;BME280;11076;47.942;11.804;2022-11-23T13:38:53;93058.84;;;7.29;82.78
21828;BME280;11076;47.942;11.804;2022-11-23T13:43:55;93064.28;;;7.23;83.48
21828;BME280;11076;47.942;11.804;2022-11-23T13:48:58;93065.19;;;7.05;82.92
21828;BME280;11076;47.942;11.804;2022-11-23T13:54:18;93066.13;;;6.99;83.80
21828;BME280;11076;47.942;11.804;2022-11-23T14:04:25;93051.28;;;6.79;85.38
21828;BME280;11076;47.942;11.804;2022-11-23T14:14:57;93056.09;;;6.59;85.99
21828;BME280;11076;47.942;11.804;2022-11-23T14:41:21;93050.00;;;5.35;90.68
21828;BME280;11076;47.942;11.804;2022-11-23T14:46:24;93058.97;;;5.16;91.62
21828;BME280;11076;47.942;11.804;2022-11-23T14:51:27;93062.59;;;4.96;91.35
21828;BME280;11076;47.942;11.804;2022-11-23T14:56:38;93065.38;;;4.76;92.28
21828;BME280;11076;47.942;11.804;2022-11-23T15:02:17;93070.22;;;4.54;93.17
21828;BME280;11076;47.942;11.804;2022-11-23T15:07:24;93064.47;;;4.32;95.06
21828;BME280;11076;47.942;11.804;2022-11-23T15:12:41;93078.47;;;4.01;97.03
21828;BME280;11076;47.942;11.804;2022-11-23T15:17:54;93081.03;;;3.69;97.80
21828;BME280;11076;47.942;11.804;2022-11-23T15:23:00;93075.78;;;3.56;99.62
21828;BME280;11076;47.942;11.804;2022-11-23T15:28:02;93083.56;;;3.37;99.38
21828;BME280;11076;47.942;11.804;2022-11-23T15:33:08;93081.75;;;3.25;100.00
21828;BME280;11076;47.942;11.804;2022-11-23T15:38:13;93090.09;;;3.02;100.00
21828;BME280;11076;47.942;11.804;2022-11-23T15:43:19;93085.22;;;2.78;100.00
21828;BME280;11076;47.942;11.804;2022-11-23T15:48:29;93080.34;;;2.55;100.00
21828;BME280;11076;47.942;11.804;2022-11-23T15:53:47;93094.50;;;2.28;100.00
21828;BME280;11076;47.942;11.804;2022-11-23T15:58:52;93089.19;;;2.14;100.00
21828;BME280;11076;47.942;11.804;2022-11-23T16:03:59;93091.59;;;1.96;100.00
21828;BME280;11076;47.942;11.804;2022-11-23T16:20:35;93089.84;;;1.62;100.00
21828;BME280;11076;47.942;11.804;2022-11-23T16:25:37;93088.59;;;1.57;100.00
21828;BME280;11076;47.942;11.804;2022-11-23T16:30:42;93094.22;;;1.48;100.00
21828;BME280;11076;47.942;11.804;2022-11-23T16:35:46;93096.09;;;1.54;100.00
21828;BME280;11076;47.942;11.804;2022-11-23T16:40:49;93088.56;;;1.51;100.00
21828;BME280;11076;47.942;11.804;2022-11-23T16:45:53;93080.00;;;1.42;100.00
21828;BME280;11076;47.942;11.804;2022-11-23T16:50:56;93088.88;;;1.34;100.00
21828;BME280;11076;47.942;11.804;2022-11-23T16:56:00;93088.44;;;1.31;100.00
21828;BME280;11076;47.942;11.804;2022-11-23T17:01:03;93086.84;;;1.30;100.00
21828;BME280;11076;47.942;11.804;2022-11-23T17:06:06;93086.56;;;1.18;100.00
21828;BME280;11076;47.942;11.804;2022-11-23T17:11:16;93093.91;;;0.94;100.00
21828;BME280;11076;47.942;11.804;2022-11-23T17:16:20;93080.88;;;0.86;100.00
21828;BME280;11076;47.942;11.804;2022-11-23T17:21:23;93085.06;;;0.74;100.00
21828;BME280;11076;47.942;11.804;2022-11-23T17:26:34;93080.03;;;0.57;100.00
21828;BME280;11076;47.942;11.804;2022-11-23T17:31:37;93081.69;;;0.37;100.00
21828;BME280;11076;47.942;11.804;2022-11-23T17:36:41;93087.72;;;0.31;100.00
21828;BME280;11076;47.942;11.804;2022-11-23T17:41:44;93095.88;;;0.36;100.00
21828;BME280;11076;47.942;11.804;2022-11-23T17:46:46;93094.34;;;0.27;100.00
21828;BME280;11076;47.942;11.804;2022-11-23T17:51:50;93096.72;;;0.22;100.00
21828;BME280;11076;47.942;11.804;2022-11-23T17:56:53;93100.84;;;0.09;100.00
21828;BME280;11076;47.942;11.804;2022-11-23T18:01:55;93107.22;;;0.00;100.00
21828;BME280;11076;47.942;11.804;2022-11-23T18:06:58;93115.13;;;0.00;100.00
21828;BME280;11076;47.942;11.804;2022-11-23T18:12:01;93114.47;;;-0.02;100.00
21828;BME280;11076;47.942;11.804;2022-11-23T18:17:03;93114.22;;;-0.07;100.00
21828;BME280;11076;47.942;11.804;2022-11-23T18:22:06;93125.28;;;-0.12;100.00
21828;BME280;11076;47.942;11.804;2022-11-23T18:27:08;93118.69;;;-0.23;100.00
21828;BME280;11076;47.942;11.804;2022-11-23T18:32:10;93121.69;;;-0.26;100.00
21828;BME280;11076;47.942;11.804;2022-11-23T18:37:13;93120.69;;;-0.25;100.00
21828;BME280;11076;47.942;11.804;2022-11-23T18:42:15;93126.50;;;-0.29;100.00
21828;BME280;11076;47.942;11.804;2022-11-23T18:47:18;93146.88;;;-0.31;100.00
21828;BME280;11076;47.942;11.804;2022-11-23T18:52:20;93148.31;;;-0.29;100.00
21828;BME280;11076;47.942;11.804;2022-11-23T18:57:22;93151.47;;;-0.18;100.00
21828;BME280;11076;47.942;11.804;2022-11-23T19:02:25;93158.81;;;0.23;100.00
21828;BME280;11076;47.942;11.804;2022-11-23T19:07:27;93170.09;;;0.59;100.00
21828;BME280;11076;47.942;11.804;2022-11-23T19:12:30;93177.63;;;0.84;100.00
21828;BME280;11076;47.942;11.804;2022-11-23T19:17:33;93217.28;;;1.04;100.00
21828;BME280;11076;47.942;11.804;2022-11-23T19:22:35;93208.72;;;1.24;100.00
21828;BME280;11076;47.942;11.804;2022-11-23T19:27:37;93225.06;;;1.41;100.00
21828;BME280;11076;47.942;11.804;2022-11-23T19:32:41;93232.31;;;1.67;100.00
21828;BME280;11076;47.942;11.804;2022-11-23T19:37:43;93229.91;;;1.65;100.00
21828;BME280;11076;47.942;11.804;2022-11-23T19:42:46;93246.03;;;1.84;100.00
21828;BME280;11076;47.942;11.804;2022-11-23T19:47:48;93253.00;;;1.98;100.00
21828;BME280;11076;47.942;11.804;2022-11-23T19:52:50;93282.25;;;2.03;100.00
21828;BME280;11076;47.942;11.804;2022-11-23T19:58:12;93294.84;;;2.08;100.00
21828;BME280;11076;47.942;11.804;2022-11-23T20:03:15;93304.88;;;2.26;100.00
21828;BME280;11076;47.942;11.804;2022-11-23T20:08:18;93314.13;;;2.43;100.00
21828;BME280;11076;47.942;11.804;2022-11-23T20:13:20;93334.28;;;2.64;100.00
21828;BME280;11076;47.942;11.804;2022-11-23T20:18:23;93333.53;;;2.77;100.00
21828;BME280;11076;47.942;11.804;2022-11-23T20:23:28;93342.72;;;2.94;100.00
21828;BME280;11076;47.942;11.804;2022-11-23T20:28:30;93352.72;;;3.06;100.00
21828;BME280;11076;47.942;11.804;2022-11-23T20:33:32;93362.69;;;3.10;100.00
21828;BME280;11076;47.942;11.804;2022-11-23T20:38:38;93375.13;;;3.16;100.00
21828;BME280;11076;47.942;11.804;2022-11-23T20:43:41;93388.34;;;3.16;100.00
21828;BME280;11076;47.942;11.804;2022-11-23T20:48:44;93391.97;;;3.15;100.00
21828;BME280;11076;47.942;11.804;2022-11-23T20:53:48;93406.97;;;3.08;100.00
21828;BME280;11076;47.942;11.804;2022-11-23T20:58:55;93412.84;;;3.04;100.00
21828;BME280;11076;47.942;11.804;2022-11-23T21:04:00;93424.00;;;2.99;100.00
21828;BME280;11076;47.942;11.804;2022-11-23T21:09:03;93430.28;;;2.98;100.00
21828;BME280;11076;47.942;11.804;2022-11-23T21:14:25;93440.63;;;2.93;100.00
21828;BME280;11076;47.942;11.804;2022-11-23T21:19:32;93435.31;;;2.86;100.00
21828;BME280;11076;47.942;11.804;2022-11-23T21:24:35;93441.59;;;2.85;100.00
21828;BME280;11076;47.942;11.804;2022-11-23T21:29:38;93437.72;;;2.81;100.00
21828;BME280;11076;47.942;11.804;2022-11-23T21:34:40;93447.41;;;2.74;100.00
21828;BME280;11076;47.942;11.804;2022-11-23T21:39:43;93457.50;;;2.64;100.00
21828;BME280;11076;47.942;11.804;2022-11-23T21:44:47;93456.31;;;2.66;100.00
21828;BME280;11076;47.942;11.804;2022-11-23T21:49:49;93457.25;;;2.58;100.00
21828;BME280;11076;47.942;11.804;2022-11-23T21:54:52;93452.59;;;2.61;100.00
21828;BME280;11076;47.942;11.804;2022-11-23T21:59:54;93449.75;;;2.55;100.00
21828;BME280;11076;47.942;11.804;2022-11-23T22:04:57;93450.38;;;2.57;100.00
21828;BME280;11076;47.942;11.804;2022-11-23T22:09:59;93455.25;;;2.61;100.00
21828;BME280;11076;47.942;11.804;2022-11-23T22:15:02;93452.88;;;2.72;100.00
21828;BME280;11076;47.942;11.804;2022-11-23T22:20:05;93461.69;;;2.86;100.00
21828;BME280;11076;47.942;11.804;2022-11-23T22:25:07;93471.81;;;3.11;100.00
21828;BME280;11076;47.942;11.804;2022-11-23T22:30:10;93476.59;;;3.35;100.00
21828;BME280;11076;47.942;11.804;2022-11-23T22:35:12;93468.94;;;3.54;100.00
21828;BME280;11076;47.942;11.804;2022-11-23T22:40:15;93456.00;;;3.72;100.00
21828;BME280;11076;47.942;11.804;2022-11-23T22:45:17;93471.91;;;3.92;100.00
21828;BME280;11076;47.942;11.804;2022-11-23T22:50:20;93477.81;;;4.01;100.00
21828;BME280;11076;47.942;11.804;2022-11-23T22:55:22;93485.34;;;4.11;100.00
21828;BME280;11076;47.942;11.804;2022-11-23T23:00:24;93487.00;;;4.25;100.00
21828;BME280;11076;47.942;11.804;2022-11-23T23:05:27;93500.03;;;4.33;100.00
21828;BME280;11076;47.942;11.804;2022-11-23T23:10:29;93491.47;;;4.51;100.00
21828;BME280;11076;47.942;11.804;2022-11-23T23:15:32;93499.25;;;4.60;100.00
21828;BME280;11076;47.942;11.804;2022-11-23T23:20:35;93514.31;;;4.72;100.00
21828;BME280;11076;47.942;11.804;2022-11-23T23:25:38;93506.97;;;4.74;100.00
21828;BME280;11076;47.942;11.804;2022-11-23T23:30:40;93526.53;;;4.80;100.00
21828;BME280;11076;47.942;11.804;2022-11-23T23:35:43;93527.75;;;4.84;100.00
21828;BME280;11076;47.942;11.804;2022-11-23T23:40:45;93540.38;;;4.82;100.00
21828;BME280;11076;47.942;11.804;2022-11-23T23:45:54;93553.81;;;4.81;100.00
21828;BME280;11076;47.942;11.804;2022-11-23T23:50:57;93559.09;;;4.87;100.00
21828;BME280;11076;47.942;11.804;2022-11-23T23:56:02;93566.25;;;4.93;100.00
